sensor_id;sensor_type;location;lat;lon;timestamp;temperature;humidity
29003;DHT22;16102;57.138;-2.118;2022-12-10T00:01:31;3.70;99.90
29003;DHT22;16102;57.138;-2.118;2022-12-10T00:03:59;3.70;99.90
29003;DHT22;16102;57.138;-2.118;2022-12-10T00:06:28;3.80;99.90
29003;DHT22;16102;57.138;-2.118;2022-12-10T00:08:56;3.80;99.90
29003;DHT22;16102;57.138;-2.118;2022-12-10T00:11:24;3.80;99.90
29003;DHT22;16102;57.138;-2.118;2022-12-10T00:13:52;3.80;99.90
29003;DHT22;16102;57.138;-2.118;2022-12-10T00:16:21;3.90;99.90
29003;DHT22;16102;57.138;-2.118;2022-12-10T00:18:49;3.80;99.90
29003;DHT22;16102;57.138;-2.118;2022-12-10T00:21:27;3.80;99.90
29003;DHT22;16102;57.138;-2.118;2022-12-10T00:23:55;3.70;99.90
29003;DHT22;16102;57.138;-2.118;2022-12-10T00:26:31;3.70;99.90
29003;DHT22;16102;57.138;-2.118;2022-12-10T00:28:59;3.60;99.90
29003;DHT22;16102;57.138;-2.118;2022-12-10T00:31:29;3.50;99.90
29003;DHT22;16102;57.138;-2.118;2022-12-10T00:33:58;3.50;99.90
29003;DHT22;16102;57.138;-2.118;2022-12-10T00:36:31;3.50;99.90
29003;DHT22;16102;57.138;-2.118;2022-12-10T00:38:59;3.50;99.90
29003;DHT22;16102;57.138;-2.118;2022-12-10T00:41:27;3.60;99.90
29003;DHT22;16102;57.138;-2.118;2022-12-10T00:43:54;3.60;99.90
29003;DHT22;16102;57.138;-2.118;2022-12-10T00:46:21;3.60;99.90
29003;DHT22;16102;57.138;-2.118;2022-12-10T00:48:48;3.70;99.90
29003;DHT22;16102;57.138;-2.118;2022-12-10T00:51:21;3.70;99.90
29003;DHT22;16102;57.138;-2.118;2022-12-10T00:53:50;3.70;99.90
29003;DHT22;16102;57.138;-2.118;2022-12-10T00:56:23;3.80;99.90
29003;DHT22;16102;57.138;-2.118;2022-12-10T00:58:51;3.80;99.90
29003;DHT22;16102;57.138;-2.118;2022-12-10T01:01:33;3.80;99.90
29003;DHT22;16102;57.138;-2.118;2022-12-10T01:04:09;3.80;99.90
29003;DHT22;16102;57.138;-2.118;2022-12-10T01:06:47;3.80;99.90
29003;DHT22;16102;57.138;-2.118;2022-12-10T01:09:17;3.80;99.90
29003;DHT22;16102;57.138;-2.118;2022-12-10T01:11:46;3.80;99.90
29003;DHT22;16102;57.138;-2.118;2022-12-10T01:14:18;3.80;99.90
29003;DHT22;16102;57.138;-2.118;2022-12-10T01:16:46;3.80;99.90
29003;DHT22;16102;57.138;-2.118;2022-12-10T01:19:14;3.80;99.90
29003;DHT22;16102;57.138;-2.118;2022-12-10T01:21:41;3.70;99.90
29003;DHT22;16102;57.138;-2.118;2022-12-10T01:24:08;3.70;99.90
29003;DHT22;16102;57.138;-2.118;2022-12-10T01:26:36;3.70;99.90
29003;DHT22;16102;57.138;-2.118;2022-12-10T01:29:04;3.60;99.90
29003;DHT22;16102;57.138;-2.118;2022-12-10T01:31:36;3.60;99.90
29003;DHT22;16102;57.138;-2.118;2022-12-10T01:34:05;3.50;99.90
29003;DHT22;16102;57.138;-2.118;2022-12-10T01:36:40;3.50;99.90
29003;DHT22;16102;57.138;-2.118;2022-12-10T01:39:10;3.40;99.90
29003;DHT22;16102;57.138;-2.118;2022-12-10T01:41:44;3.40;99.90
29003;DHT22;16102;57.138;-2.118;2022-12-10T01:46:44;3.30;99.90
29003;DHT22;16102;57.138;-2.118;2022-12-10T01:49:18;3.30;99.90
29003;DHT22;16102;57.138;-2.118;2022-12-10T01:51:48;3.20;99.90
29003;DHT22;16102;57.138;-2.118;2022-12-10T01:54:22;3.20;99.90
29003;DHT22;16102;57.138;-2.118;2022-12-10T01:56:57;3.30;99.90
29003;DHT22;16102;57.138;-2.118;2022-12-10T01:59:25;3.30;99.90
29003;DHT22;16102;57.138;-2.118;2022-12-10T02:02:22;3.40;99.90
29003;DHT22;16102;57.138;-2.118;2022-12-10T02:05:10;3.40;99.90
29003;DHT22;16102;57.138;-2.118;2022-12-10T02:10:17;3.50;99.90
29003;DHT22;16102;57.138;-2.118;2022-12-10T02:15:26;3.50;99.90
29003;DHT22;16102;57.138;-2.118;2022-12-10T02:18:13;3.50;99.90
29003;DHT22;16102;57.138;-2.118;2022-12-10T02:20:49;3.50;99.90
29003;DHT22;16102;57.138;-2.118;2022-12-10T02:23:24;3.50;99.90
29003;DHT22;16102;57.138;-2.118;2022-12-10T02:31:20;3.60;99.90
29003;DHT22;16102;57.138;-2.118;2022-12-10T02:33:54;3.60;99.90
29003;DHT22;16102;57.138;-2.118;2022-12-10T02:36:24;3.70;99.90
29003;DHT22;16102;57.138;-2.118;2022-12-10T02:38:52;3.70;99.90
29003;DHT22;16102;57.138;-2.118;2022-12-10T02:41:28;3.70;99.90
29003;DHT22;16102;57.138;-2.118;2022-12-10T02:43:56;3.70;99.90
29003;DHT22;16102;57.138;-2.118;2022-12-10T02:46:26;3.70;99.90
29003;DHT22;16102;57.138;-2.118;2022-12-10T02:48:55;3.80;99.90
29003;DHT22;16102;57.138;-2.118;2022-12-10T02:51:23;3.80;99.90
29003;DHT22;16102;57.138;-2.118;2022-12-10T02:54:05;3.80;99.90
29003;DHT22;16102;57.138;-2.118;2022-12-10T02:56:42;3.80;99.90
29003;DHT22;16102;57.138;-2.118;2022-12-10T02:59:23;3.70;99.90
29003;DHT22;16102;57.138;-2.118;2022-12-10T03:04:42;3.70;99.90
29003;DHT22;16102;57.138;-2.118;2022-12-10T03:07:21;3.70;99.90
29003;DHT22;16102;57.138;-2.118;2022-12-10T03:09:58;3.70;99.90
29003;DHT22;16102;57.138;-2.118;2022-12-10T03:12:47;3.70;99.90
29003;DHT22;16102;57.138;-2.118;2022-12-10T03:15:16;3.60;99.90
29003;DHT22;16102;57.138;-2.118;2022-12-10T03:17:45;3.70;99.90
29003;DHT22;16102;57.138;-2.118;2022-12-10T03:20:14;3.70;99.90
29003;DHT22;16102;57.138;-2.118;2022-12-10T03:22:45;3.70;99.90
29003;DHT22;16102;57.138;-2.118;2022-12-10T03:25:21;3.80;99.90
29003;DHT22;16102;57.138;-2.118;2022-12-10T03:27:52;3.90;99.90
29003;DHT22;16102;57.138;-2.118;2022-12-10T03:30:21;3.90;99.90
29003;DHT22;16102;57.138;-2.118;2022-12-10T03:32:49;4.00;99.90
29003;DHT22;16102;57.138;-2.118;2022-12-10T03:35:19;4.00;99.90
29003;DHT22;16102;57.138;-2.118;2022-12-10T03:37:47;4.00;99.90
29003;DHT22;16102;57.138;-2.118;2022-12-10T03:40:18;4.00;99.90
29003;DHT22;16102;57.138;-2.118;2022-12-10T03:42:46;4.00;99.90
29003;DHT22;16102;57.138;-2.118;2022-12-10T03:45:14;4.00;99.90
29003;DHT22;16102;57.138;-2.118;2022-12-10T03:47:42;4.10;99.90
29003;DHT22;16102;57.138;-2.118;2022-12-10T03:50:09;4.10;99.90
29003;DHT22;16102;57.138;-2.118;2022-12-10T03:52:37;4.10;99.90
29003;DHT22;16102;57.138;-2.118;2022-12-10T03:55:05;4.10;99.90
29003;DHT22;16102;57.138;-2.118;2022-12-10T03:57:33;4.10;99.90
29003;DHT22;16102;57.138;-2.118;2022-12-10T04:00:01;4.10;99.90
29003;DHT22;16102;57.138;-2.118;2022-12-10T04:02:29;4.10;99.90
29003;DHT22;16102;57.138;-2.118;2022-12-10T04:04:56;4.00;99.90
29003;DHT22;16102;57.138;-2.118;2022-12-10T04:07:23;4.00;99.90
29003;DHT22;16102;57.138;-2.118;2022-12-10T04:09:50;4.00;99.90
29003;DHT22;16102;57.138;-2.118;2022-12-10T04:12:18;4.00;99.90
29003;DHT22;16102;57.138;-2.118;2022-12-10T04:14:45;4.00;99.90
29003;DHT22;16102;57.138;-2.118;2022-12-10T04:17:33;4.00;99.90
29003;DHT22;16102;57.138;-2.118;2022-12-10T04:20:00;3.90;99.90
29003;DHT22;16102;57.138;-2.118;2022-12-10T04:22:27;4.00;99.90
29003;DHT22;16102;57.138;-2.118;2022-12-10T04:25:13;4.00;99.90
29003;DHT22;16102;57.138;-2.118;2022-12-10T04:27:59;4.00;99.90
29003;DHT22;16102;57.138;-2.118;2022-12-10T04:30:26;4.00;99.90
29003;DHT22;16102;57.138;-2.118;2022-12-10T04:32:53;4.00;99.90
29003;DHT22;16102;57.138;-2.118;2022-12-10T04:35:20;4.10;99.90
29003;DHT22;16102;57.138;-2.118;2022-12-10T04:37:47;4.10;99.90
29003;DHT22;16102;57.138;-2.118;2022-12-10T04:40:14;4.10;99.90
29003;DHT22;16102;57.138;-2.118;2022-12-10T04:42:41;4.10;99.90
29003;DHT22;16102;57.138;-2.118;2022-12-10T04:45:09;4.00;99.90
29003;DHT22;16102;57.138;-2.118;2022-12-10T04:47:36;4.00;99.90
29003;DHT22;16102;57.138;-2.118;2022-12-10T04:50:03;4.00;99.90
29003;DHT22;16102;57.138;-2.118;2022-12-10T04:52:30;4.00;99.90
29003;DHT22;16102;57.138;-2.118;2022-12-10T04:54:57;4.00;99.90
29003;DHT22;16102;57.138;-2.118;2022-12-10T04:57:24;4.10;99.90
29003;DHT22;16102;57.138;-2.118;2022-12-10T04:59:51;4.00;99.90
29003;DHT22;16102;57.138;-2.118;2022-12-10T05:02:18;4.00;99.90
29003;DHT22;16102;57.138;-2.118;2022-12-10T05:04:45;4.00;99.90
29003;DHT22;16102;57.138;-2.118;2022-12-10T05:07:14;4.00;99.90
29003;DHT22;16102;57.138;-2.118;2022-12-10T05:09:41;4.10;99.90
29003;DHT22;16102;57.138;-2.118;2022-12-10T05:12:08;4.10;99.90
29003;DHT22;16102;57.138;-2.118;2022-12-10T05:14:35;4.20;99.90
29003;DHT22;16102;57.138;-2.118;2022-12-10T05:17:02;4.10;99.90
29003;DHT22;16102;57.138;-2.118;2022-12-10T05:19:29;4.20;99.90
29003;DHT22;16102;57.138;-2.118;2022-12-10T05:21:58;4.30;99.90
29003;DHT22;16102;57.138;-2.118;2022-12-10T05:24:43;4.30;99.90
29003;DHT22;16102;57.138;-2.118;2022-12-10T05:27:10;4.40;99.90
29003;DHT22;16102;57.138;-2.118;2022-12-10T05:29:37;4.40;99.90
29003;DHT22;16102;57.138;-2.118;2022-12-10T05:32:04;4.40;99.90
29003;DHT22;16102;57.138;-2.118;2022-12-10T05:34:32;4.50;99.90
29003;DHT22;16102;57.138;-2.118;2022-12-10T05:36:59;4.50;99.90
29003;DHT22;16102;57.138;-2.118;2022-12-10T05:39:25;4.60;99.90
29003;DHT22;16102;57.138;-2.118;2022-12-10T05:41:53;4.50;99.90
29003;DHT22;16102;57.138;-2.118;2022-12-10T05:44:20;4.50;99.90
29003;DHT22;16102;57.138;-2.118;2022-12-10T05:46:47;4.60;99.90
29003;DHT22;16102;57.138;-2.118;2022-12-10T05:49:14;4.60;99.90
29003;DHT22;16102;57.138;-2.118;2022-12-10T05:51:41;4.60;99.90
29003;DHT22;16102;57.138;-2.118;2022-12-10T05:54:09;4.60;99.90
29003;DHT22;16102;57.138;-2.118;2022-12-10T05:56:37;4.60;99.90
29003;DHT22;16102;57.138;-2.118;2022-12-10T05:59:05;4.60;99.90
29003;DHT22;16102;57.138;-2.118;2022-12-10T06:01:40;4.50;99.90
29003;DHT22;16102;57.138;-2.118;2022-12-10T06:04:07;4.50;99.90
29003;DHT22;16102;57.138;-2.118;2022-12-10T06:06:36;4.50;99.90
29003;DHT22;16102;57.138;-2.118;2022-12-10T06:09:05;4.50;99.90
29003;DHT22;16102;57.138;-2.118;2022-12-10T06:11:33;4.60;99.90
29003;DHT22;16102;57.138;-2.118;2022-12-10T06:13:59;4.70;99.90
29003;DHT22;16102;57.138;-2.118;2022-12-10T06:16:28;4.70;99.90
29003;DHT22;16102;57.138;-2.118;2022-12-10T06:18:56;4.70;99.90
29003;DHT22;16102;57.138;-2.118;2022-12-10T06:21:24;4.70;99.90
29003;DHT22;16102;57.138;-2.118;2022-12-10T06:23:52;4.60;99.90
29003;DHT22;16102;57.138;-2.118;2022-12-10T06:26:24;4.60;99.90
29003;DHT22;16102;57.138;-2.118;2022-12-10T06:28:52;4.50;99.90
29003;DHT22;16102;57.138;-2.118;2022-12-10T06:31:19;4.40;99.90
29003;DHT22;16102;57.138;-2.118;2022-12-10T06:33:47;4.30;99.90
29003;DHT22;16102;57.138;-2.118;2022-12-10T06:36:15;4.20;99.90
29003;DHT22;16102;57.138;-2.118;2022-12-10T06:38:42;4.20;99.90
29003;DHT22;16102;57.138;-2.118;2022-12-10T06:41:11;4.20;99.90
29003;DHT22;16102;57.138;-2.118;2022-12-10T06:43:39;4.20;99.90
29003;DHT22;16102;57.138;-2.118;2022-12-10T06:46:10;4.10;56.60
29003;DHT22;16102;57.138;-2.118;2022-12-10T06:48:38;4.10;1.00
29003;DHT22;16102;57.138;-2.118;2022-12-10T06:51:06;4.00;99.90
29003;DHT22;16102;57.138;-2.118;2022-12-10T06:53:34;3.90;1.00
29003;DHT22;16102;57.138;-2.118;2022-12-10T06:56:03;3.80;99.90
29003;DHT22;16102;57.138;-2.118;2022-12-10T06:58:32;3.80;99.90
29003;DHT22;16102;57.138;-2.118;2022-12-10T07:01:11;3.70;1.00
29003;DHT22;16102;57.138;-2.118;2022-12-10T07:03:39;3.70;1.00
29003;DHT22;16102;57.138;-2.118;2022-12-10T07:06:08;3.80;1.00
29003;DHT22;16102;57.138;-2.118;2022-12-10T07:08:36;3.80;99.90
29003;DHT22;16102;57.138;-2.118;2022-12-10T07:11:04;3.80;1.00
29003;DHT22;16102;57.138;-2.118;2022-12-10T07:13:32;3.80;1.00
29003;DHT22;16102;57.138;-2.118;2022-12-10T07:15:59;3.70;99.90
29003;DHT22;16102;57.138;-2.118;2022-12-10T07:18:26;3.70;99.90
29003;DHT22;16102;57.138;-2.118;2022-12-10T07:20:54;3.60;1.00
29003;DHT22;16102;57.138;-2.118;2022-12-10T07:23:21;3.50;1.00
29003;DHT22;16102;57.138;-2.118;2022-12-10T07:25:48;3.60;1.00
29003;DHT22;16102;57.138;-2.118;2022-12-10T07:28:15;3.70;1.00
29003;DHT22;16102;57.138;-2.118;2022-12-10T07:30:42;3.80;1.00
29003;DHT22;16102;57.138;-2.118;2022-12-10T07:33:09;3.90;1.00
29003;DHT22;16102;57.138;-2.118;2022-12-10T07:35:38;4.00;1.00
29003;DHT22;16102;57.138;-2.118;2022-12-10T07:38:14;3.90;99.90
29003;DHT22;16102;57.138;-2.118;2022-12-10T07:40:41;3.90;99.90
29003;DHT22;16102;57.138;-2.118;2022-12-10T07:43:08;3.80;99.90
29003;DHT22;16102;57.138;-2.118;2022-12-10T07:45:35;3.80;99.90
29003;DHT22;16102;57.138;-2.118;2022-12-10T07:48:02;3.80;99.90
29003;DHT22;16102;57.138;-2.118;2022-12-10T07:50:28;4.00;99.90
29003;DHT22;16102;57.138;-2.118;2022-12-10T07:52:56;4.20;99.90
29003;DHT22;16102;57.138;-2.118;2022-12-10T07:55:24;4.20;13.10
29003;DHT22;16102;57.138;-2.118;2022-12-10T07:57:51;4.10;1.00
29003;DHT22;16102;57.138;-2.118;2022-12-10T08:00:18;4.20;1.00
29003;DHT22;16102;57.138;-2.118;2022-12-10T08:02:45;4.20;1.00
29003;DHT22;16102;57.138;-2.118;2022-12-10T08:05:12;4.50;99.90
29003;DHT22;16102;57.138;-2.118;2022-12-10T08:07:39;4.50;99.90
29003;DHT22;16102;57.138;-2.118;2022-12-10T08:10:06;4.40;1.00
29003;DHT22;16102;57.138;-2.118;2022-12-10T08:12:33;4.30;1.00
29003;DHT22;16102;57.138;-2.118;2022-12-10T08:15:00;4.20;1.00
29003;DHT22;16102;57.138;-2.118;2022-12-10T08:17:29;4.20;1.00
29003;DHT22;16102;57.138;-2.118;2022-12-10T08:19:59;4.20;1.00
29003;DHT22;16102;57.138;-2.118;2022-12-10T08:22:26;4.20;99.90
29003;DHT22;16102;57.138;-2.118;2022-12-10T08:24:53;4.30;99.90
29003;DHT22;16102;57.138;-2.118;2022-12-10T08:27:20;4.30;99.90
29003;DHT22;16102;57.138;-2.118;2022-12-10T08:29:48;4.30;99.90
29003;DHT22;16102;57.138;-2.118;2022-12-10T08:32:15;4.20;1.00
29003;DHT22;16102;57.138;-2.118;2022-12-10T08:34:42;4.20;1.00
29003;DHT22;16102;57.138;-2.118;2022-12-10T08:37:09;4.20;1.00
29003;DHT22;16102;57.138;-2.118;2022-12-10T08:39:38;4.20;1.00
29003;DHT22;16102;57.138;-2.118;2022-12-10T08:42:05;4.20;1.00
29003;DHT22;16102;57.138;-2.118;2022-12-10T08:44:31;4.20;1.00
29003;DHT22;16102;57.138;-2.118;2022-12-10T08:46:59;4.10;1.00
29003;DHT22;16102;57.138;-2.118;2022-12-10T08:49:26;4.20;1.00
29003;DHT22;16102;57.138;-2.118;2022-12-10T08:51:53;4.10;1.00
29003;DHT22;16102;57.138;-2.118;2022-12-10T08:54:21;4.10;1.00
29003;DHT22;16102;57.138;-2.118;2022-12-10T08:56:48;4.00;1.00
29003;DHT22;16102;57.138;-2.118;2022-12-10T08:59:15;4.10;1.00
29003;DHT22;16102;57.138;-2.118;2022-12-10T09:01:42;4.00;1.00
29003;DHT22;16102;57.138;-2.118;2022-12-10T09:04:09;4.00;1.00
29003;DHT22;16102;57.138;-2.118;2022-12-10T09:06:36;4.00;1.00
29003;DHT22;16102;57.138;-2.118;2022-12-10T09:09:06;4.00;1.00
29003;DHT22;16102;57.138;-2.118;2022-12-10T09:11:34;4.00;1.00
29003;DHT22;16102;57.138;-2.118;2022-12-10T09:14:02;4.00;1.00
29003;DHT22;16102;57.138;-2.118;2022-12-10T09:16:32;4.10;1.00
29003;DHT22;16102;57.138;-2.118;2022-12-10T09:19:01;4.10;99.00
29003;DHT22;16102;57.138;-2.118;2022-12-10T09:21:28;4.10;99.90
29003;DHT22;16102;57.138;-2.118;2022-12-10T09:23:57;4.10;99.90
29003;DHT22;16102;57.138;-2.118;2022-12-10T09:26:25;4.10;99.90
29003;DHT22;16102;57.138;-2.118;2022-12-10T09:28:52;4.10;1.00
29003;DHT22;16102;57.138;-2.118;2022-12-10T09:31:21;4.10;1.00
29003;DHT22;16102;57.138;-2.118;2022-12-10T09:33:50;4.20;99.90
29003;DHT22;16102;57.138;-2.118;2022-12-10T09:36:18;4.20;99.90
29003;DHT22;16102;57.138;-2.118;2022-12-10T09:38:46;4.20;1.00
29003;DHT22;16102;57.138;-2.118;2022-12-10T09:41:45;4.20;26.90
29003;DHT22;16102;57.138;-2.118;2022-12-10T09:44:25;4.20;99.90
29003;DHT22;16102;57.138;-2.118;2022-12-10T09:46:58;4.30;1.00
29003;DHT22;16102;57.138;-2.118;2022-12-10T09:52:22;4.30;99.90
29003;DHT22;16102;57.138;-2.118;2022-12-10T09:54:54;4.30;1.00
29003;DHT22;16102;57.138;-2.118;2022-12-10T10:02:46;4.20;1.00
29003;DHT22;16102;57.138;-2.118;2022-12-10T10:05:31;4.20;1.00
29003;DHT22;16102;57.138;-2.118;2022-12-10T10:11:02;4.30;5.90
29003;DHT22;16102;57.138;-2.118;2022-12-10T10:13:40;4.20;1.00
29003;DHT22;16102;57.138;-2.118;2022-12-10T10:16:26;4.30;99.90
29003;DHT22;16102;57.138;-2.118;2022-12-10T10:19:05;4.20;1.00
29003;DHT22;16102;57.138;-2.118;2022-12-10T10:21:36;4.30;1.00
29003;DHT22;16102;57.138;-2.118;2022-12-10T10:24:05;4.30;22.20
29003;DHT22;16102;57.138;-2.118;2022-12-10T10:26:38;4.20;55.10
29003;DHT22;16102;57.138;-2.118;2022-12-10T10:29:07;4.10;99.90
29003;DHT22;16102;57.138;-2.118;2022-12-10T10:31:39;4.10;99.90
29003;DHT22;16102;57.138;-2.118;2022-12-10T10:34:18;4.00;99.90
29003;DHT22;16102;57.138;-2.118;2022-12-10T10:36:45;3.90;99.90
29003;DHT22;16102;57.138;-2.118;2022-12-10T10:41:43;3.80;99.90
29003;DHT22;16102;57.138;-2.118;2022-12-10T10:44:19;3.80;1.00
29003;DHT22;16102;57.138;-2.118;2022-12-10T10:46:51;3.80;1.00
29003;DHT22;16102;57.138;-2.118;2022-12-10T10:49:26;3.70;53.30
29003;DHT22;16102;57.138;-2.118;2022-12-10T10:52:00;3.80;99.90
29003;DHT22;16102;57.138;-2.118;2022-12-10T10:57:00;3.80;99.90
29003;DHT22;16102;57.138;-2.118;2022-12-10T10:59:34;3.70;99.90
29003;DHT22;16102;57.138;-2.118;2022-12-10T11:04:50;3.70;99.90
29003;DHT22;16102;57.138;-2.118;2022-12-10T11:09:57;3.70;99.90
29003;DHT22;16102;57.138;-2.118;2022-12-10T11:12:36;3.60;99.90
29003;DHT22;16102;57.138;-2.118;2022-12-10T11:17:53;3.60;99.90
29003;DHT22;16102;57.138;-2.118;2022-12-10T11:20:29;3.60;1.00
29003;DHT22;16102;57.138;-2.118;2022-12-10T11:23:02;3.60;1.00
29003;DHT22;16102;57.138;-2.118;2022-12-10T11:25:50;3.60;1.00
29003;DHT22;16102;57.138;-2.118;2022-12-10T11:31:21;3.60;1.00
29003;DHT22;16102;57.138;-2.118;2022-12-10T11:34:00;3.60;99.90
29003;DHT22;16102;57.138;-2.118;2022-12-10T11:36:34;3.70;99.90
29003;DHT22;16102;57.138;-2.118;2022-12-10T11:45:27;3.60;1.00
29003;DHT22;16102;57.138;-2.118;2022-12-10T11:50:52;3.70;28.00
29003;DHT22;16102;57.138;-2.118;2022-12-10T11:56:27;3.80;59.90
29003;DHT22;16102;57.138;-2.118;2022-12-10T12:01:47;4.00;1.00
29003;DHT22;16102;57.138;-2.118;2022-12-10T12:10:54;4.20;99.90
29003;DHT22;16102;57.138;-2.118;2022-12-10T12:13:27;4.40;99.90
29003;DHT22;16102;57.138;-2.118;2022-12-10T12:15:59;4.50;99.90
29003;DHT22;16102;57.138;-2.118;2022-12-10T12:18:46;4.60;1.00
29003;DHT22;16102;57.138;-2.118;2022-12-10T12:21:16;4.70;99.90
29003;DHT22;16102;57.138;-2.118;2022-12-10T12:24:32;4.70;1.00
29003;DHT22;16102;57.138;-2.118;2022-12-10T12:26:43;4.60;46.40
29003;DHT22;16102;57.138;-2.118;2022-12-10T12:29:27;4.50;99.90
29003;DHT22;16102;57.138;-2.118;2022-12-10T12:32:19;4.30;99.90
29003;DHT22;16102;57.138;-2.118;2022-12-10T12:35:21;4.20;1.00
29003;DHT22;16102;57.138;-2.118;2022-12-10T12:38:05;4.20;1.00
29003;DHT22;16102;57.138;-2.118;2022-12-10T12:40:49;4.00;1.00
29003;DHT22;16102;57.138;-2.118;2022-12-10T12:43:34;4.00;1.00
29003;DHT22;16102;57.138;-2.118;2022-12-10T12:46:11;4.00;1.00
29003;DHT22;16102;57.138;-2.118;2022-12-10T12:48:49;3.90;1.00
29003;DHT22;16102;57.138;-2.118;2022-12-10T12:51:23;3.90;1.00
29003;DHT22;16102;57.138;-2.118;2022-12-10T12:53:53;3.90;1.00
29003;DHT22;16102;57.138;-2.118;2022-12-10T12:59:15;3.90;99.90
29003;DHT22;16102;57.138;-2.118;2022-12-10T13:01:55;3.80;99.90
29003;DHT22;16102;57.138;-2.118;2022-12-10T13:04:26;3.70;99.90
29003;DHT22;16102;57.138;-2.118;2022-12-10T13:07:32;3.70;94.30
29003;DHT22;16102;57.138;-2.118;2022-12-10T13:15:17;3.70;45.40
29003;DHT22;16102;57.138;-2.118;2022-12-10T13:28:41;3.60;99.90
29003;DHT22;16102;57.138;-2.118;2022-12-10T13:36:35;3.80;98.40
29003;DHT22;16102;57.138;-2.118;2022-12-10T13:41:31;3.50;1.00
29003;DHT22;16102;57.138;-2.118;2022-12-10T13:44:46;3.40;1.00
29003;DHT22;16102;57.138;-2.118;2022-12-10T13:50:05;3.30;1.00
29003;DHT22;16102;57.138;-2.118;2022-12-10T14:00:38;3.40;99.90
29003;DHT22;16102;57.138;-2.118;2022-12-10T14:05:54;3.40;99.90
29003;DHT22;16102;57.138;-2.118;2022-12-10T14:08:28;3.40;99.90
29003;DHT22;16102;57.138;-2.118;2022-12-10T14:10:58;3.40;99.90
29003;DHT22;16102;57.138;-2.118;2022-12-10T14:13:44;3.40;99.90
29003;DHT22;16102;57.138;-2.118;2022-12-10T14:16:15;3.40;99.90
29003;DHT22;16102;57.138;-2.118;2022-12-10T14:18:43;3.40;99.90
29003;DHT22;16102;57.138;-2.118;2022-12-10T14:21:14;3.30;99.90
29003;DHT22;16102;57.138;-2.118;2022-12-10T14:23:46;3.30;99.90
29003;DHT22;16102;57.138;-2.118;2022-12-10T14:26:30;3.30;99.90
29003;DHT22;16102;57.138;-2.118;2022-12-10T14:29:17;3.30;99.90
29003;DHT22;16102;57.138;-2.118;2022-12-10T14:31:54;3.30;99.90
29003;DHT22;16102;57.138;-2.118;2022-12-10T14:34:25;3.30;99.90
29003;DHT22;16102;57.138;-2.118;2022-12-10T14:36:55;3.30;99.90
29003;DHT22;16102;57.138;-2.118;2022-12-10T14:39:29;3.20;99.90
29003;DHT22;16102;57.138;-2.118;2022-12-10T14:42:03;3.20;99.90
29003;DHT22;16102;57.138;-2.118;2022-12-10T14:44:31;3.20;99.90
29003;DHT22;16102;57.138;-2.118;2022-12-10T14:47:18;3.30;99.90
29003;DHT22;16102;57.138;-2.118;2022-12-10T14:49:48;3.30;99.90
29003;DHT22;16102;57.138;-2.118;2022-12-10T14:52:24;3.30;99.90
29003;DHT22;16102;57.138;-2.118;2022-12-10T14:54:51;3.40;99.90
29003;DHT22;16102;57.138;-2.118;2022-12-10T15:02:28;3.50;1.00
29003;DHT22;16102;57.138;-2.118;2022-12-10T15:04:56;3.40;1.00
29003;DHT22;16102;57.138;-2.118;2022-12-10T15:07:26;3.40;1.00
29003;DHT22;16102;57.138;-2.118;2022-12-10T15:09:58;3.40;1.00
29003;DHT22;16102;57.138;-2.118;2022-12-10T15:14:55;3.40;1.00
29003;DHT22;16102;57.138;-2.118;2022-12-10T15:17:41;3.40;1.00
29003;DHT22;16102;57.138;-2.118;2022-12-10T15:20:23;3.50;1.00
29003;DHT22;16102;57.138;-2.118;2022-12-10T15:22:52;3.50;1.00
29003;DHT22;16102;57.138;-2.118;2022-12-10T15:25:27;3.60;1.00
29003;DHT22;16102;57.138;-2.118;2022-12-10T15:28:00;3.70;1.00
29003;DHT22;16102;57.138;-2.118;2022-12-10T15:30:37;3.70;1.00
29003;DHT22;16102;57.138;-2.118;2022-12-10T15:36:00;3.60;1.00
29003;DHT22;16102;57.138;-2.118;2022-12-10T15:38:27;3.70;1.00
29003;DHT22;16102;57.138;-2.118;2022-12-10T15:41:24;3.70;15.70
29003;DHT22;16102;57.138;-2.118;2022-12-10T15:44:05;3.70;95.00
29003;DHT22;16102;57.138;-2.118;2022-12-10T15:46:32;3.60;99.90
29003;DHT22;16102;57.138;-2.118;2022-12-10T15:48:59;3.60;99.90
29003;DHT22;16102;57.138;-2.118;2022-12-10T15:51:26;3.60;99.90
29003;DHT22;16102;57.138;-2.118;2022-12-10T15:53:53;3.60;99.90
29003;DHT22;16102;57.138;-2.118;2022-12-10T15:56:20;3.50;99.90
29003;DHT22;16102;57.138;-2.118;2022-12-10T15:58:47;3.50;1.00
29003;DHT22;16102;57.138;-2.118;2022-12-10T16:01:15;3.60;99.90
29003;DHT22;16102;57.138;-2.118;2022-12-10T16:03:43;3.70;99.90
29003;DHT22;16102;57.138;-2.118;2022-12-10T16:06:10;3.80;1.00
29003;DHT22;16102;57.138;-2.118;2022-12-10T16:08:43;3.90;99.90
29003;DHT22;16102;57.138;-2.118;2022-12-10T16:11:18;4.10;99.90
29003;DHT22;16102;57.138;-2.118;2022-12-10T16:13:50;4.20;99.90
29003;DHT22;16102;57.138;-2.118;2022-12-10T16:16:18;4.30;99.90
29003;DHT22;16102;57.138;-2.118;2022-12-10T16:18:45;4.40;99.90
29003;DHT22;16102;57.138;-2.118;2022-12-10T16:21:13;4.40;99.90
29003;DHT22;16102;57.138;-2.118;2022-12-10T16:23:40;4.40;99.90
29003;DHT22;16102;57.138;-2.118;2022-12-10T16:26:19;4.30;99.90
29003;DHT22;16102;57.138;-2.118;2022-12-10T16:28:47;4.20;99.90
29003;DHT22;16102;57.138;-2.118;2022-12-10T16:31:18;4.20;99.90
29003;DHT22;16102;57.138;-2.118;2022-12-10T16:33:45;4.20;99.90
29003;DHT22;16102;57.138;-2.118;2022-12-10T16:36:13;4.20;99.90
29003;DHT22;16102;57.138;-2.118;2022-12-10T16:38:40;4.40;99.90
29003;DHT22;16102;57.138;-2.118;2022-12-10T16:41:18;4.50;99.90
29003;DHT22;16102;57.138;-2.118;2022-12-10T16:43:46;4.50;99.90
29003;DHT22;16102;57.138;-2.118;2022-12-10T16:46:13;4.60;99.90
29003;DHT22;16102;57.138;-2.118;2022-12-10T16:48:40;4.50;99.90
29003;DHT22;16102;57.138;-2.118;2022-12-10T16:51:16;4.50;99.90
29003;DHT22;16102;57.138;-2.118;2022-12-10T16:53:44;4.50;99.90
29003;DHT22;16102;57.138;-2.118;2022-12-10T16:56:15;4.60;99.90
29003;DHT22;16102;57.138;-2.118;2022-12-10T16:58:43;4.60;99.90
29003;DHT22;16102;57.138;-2.118;2022-12-10T17:01:30;4.70;99.90
29003;DHT22;16102;57.138;-2.118;2022-12-10T17:04:00;4.70;99.90
29003;DHT22;16102;57.138;-2.118;2022-12-10T17:06:27;4.60;99.90
29003;DHT22;16102;57.138;-2.118;2022-12-10T17:08:55;4.60;99.90
29003;DHT22;16102;57.138;-2.118;2022-12-10T17:11:36;4.60;99.90
29003;DHT22;16102;57.138;-2.118;2022-12-10T17:14:38;4.70;99.90
29003;DHT22;16102;57.138;-2.118;2022-12-10T17:17:06;4.70;99.90
29003;DHT22;16102;57.138;-2.118;2022-12-10T17:19:36;4.60;99.90
29003;DHT22;16102;57.138;-2.118;2022-12-10T17:22:04;4.60;99.90
29003;DHT22;16102;57.138;-2.118;2022-12-10T17:24:31;4.50;99.90
29003;DHT22;16102;57.138;-2.118;2022-12-10T17:27:06;4.50;99.90
29003;DHT22;16102;57.138;-2.118;2022-12-10T17:29:39;4.50;99.90
29003;DHT22;16102;57.138;-2.118;2022-12-10T17:32:12;4.50;99.90
29003;DHT22;16102;57.138;-2.118;2022-12-10T17:34:40;4.60;99.90
29003;DHT22;16102;57.138;-2.118;2022-12-10T17:37:11;4.60;99.90
29003;DHT22;16102;57.138;-2.118;2022-12-10T17:39:39;4.60;99.90
29003;DHT22;16102;57.138;-2.118;2022-12-10T17:42:06;4.60;99.90
29003;DHT22;16102;57.138;-2.118;2022-12-10T17:44:34;4.60;99.90
29003;DHT22;16102;57.138;-2.118;2022-12-10T17:47:09;4.70;99.90
29003;DHT22;16102;57.138;-2.118;2022-12-10T17:49:39;4.70;99.90
29003;DHT22;16102;57.138;-2.118;2022-12-10T17:52:08;4.70;99.90
29003;DHT22;16102;57.138;-2.118;2022-12-10T17:54:36;4.80;99.90
29003;DHT22;16102;57.138;-2.118;2022-12-10T17:57:21;4.90;99.90